| time (UTC) | temp C | wind direction | speed KPH | gust KPH | rain 1hr cm | rain 24hr cm | rain mn cm | humidity % | barometer mb |
| 20260509090405 | 14 | 76 | 3.2 | 4.8 | 0.00 | 0.00 | 0.00 | 80 | 1008.7 |
| 20260509085405 | 14 | 76 | 3.2 | 4.8 | 0.00 | 0.00 | 0.00 | 79 | 1008.6 |
| 20260509084405 | 15 | 76 | 0.0 | 1.6 | 0.00 | 0.00 | 0.00 | 78 | 1008.4 |
| 20260509083405 | 15 | 76 | 1.6 | 4.8 | 0.00 | 0.00 | 0.00 | 78 | 1008.4 |
| 20260509082419 | 15 | 76 | 0.0 | 3.2 | 0.00 | 0.00 | 0.00 | 77 | 1008.3 |
| 20260509081904 | 15 | 76 | 0.0 | 3.2 | 0.00 | 0.00 | 0.00 | 76 | 1008.1 |
| 20260509080404 | 15 | 76 | 1.6 | 3.2 | 0.00 | 0.00 | 0.00 | 76 | 1008.0 |
| 20260509075405 | 15 | 76 | 0.0 | 3.2 | 0.00 | 0.00 | 0.00 | 75 | 1007.9 |
| 20260509074400 | 16 | 76 | 0.0 | 3.2 | 0.00 | 0.00 | 0.00 | 73 | 1007.8 |
| 20260509073359 | 16 | 76 | 1.6 | 3.2 | 0.00 | 0.00 | 0.00 | 72 | 1007.7 |
| 20260509072901 | 16 | 76 | 0.0 | 4.8 | 0.00 | 0.00 | 0.00 | 71 | 1007.7 |
| 20260509071407 | 17 | 140 | 1.6 | 4.8 | 0.00 | 0.00 | 0.00 | 69 | 1007.6 |
| 20260509071400 | 17 | 76 | 1.6 | 6.4 | 0.00 | 0.00 | 0.00 | 70 | 1007.6 |
| 20260509065357 | 17 | 98 | 3.2 | 9.7 | 0.00 | 0.00 | 0.00 | 69 | 1007.5 |
| 20260509064358 | 17 | 145 | 4.8 | 11.3 | 0.00 | 0.00 | 0.00 | 68 | 1007.3 |
| 20260509063358 | 17 | 153 | 4.8 | 11.3 | 0.00 | 0.00 | 0.00 | 67 | 1007.2 |
| 20260509062359 | 18 | 191 | 4.8 | 14.5 | 0.00 | 0.00 | 0.00 | 66 | 1007.2 |
| 20260509061353 | 18 | 109 | 4.8 | 14.5 | 0.00 | 0.00 | 0.00 | 65 | 1007.0 |
| 20260509060854 | 18 | 194 | 6.4 | 16.1 | 0.00 | 0.00 | 0.00 | 65 | 1006.9 |
| 20260509055349 | 18 | 119 | 4.8 | 11.3 | 0.00 | 0.00 | 0.00 | 64 | 1006.8 |
| 20260509054854 | 18 | 144 | 6.4 | 11.3 | 0.00 | 0.00 | 0.00 | 64 | 1006.8 |
| 20260509053350 | 18 | 204 | 4.8 | 12.9 | 0.00 | 0.00 | 0.00 | 64 | 1006.7 |
| 20260509052352 | 18 | 103 | 6.4 | 16.1 | 0.00 | 0.00 | 0.00 | 63 | 1006.7 |
| 20260509051348 | 18 | 163 | 6.4 | 16.1 | 0.00 | 0.00 | 0.00 | 63 | 1006.6 |
| 20260509050349 | 19 | 142 | 8.0 | 16.1 | 0.00 | 0.00 | 0.00 | 63 | 1006.6 |
| 20260509045346 | 19 | 194 | 8.0 | 17.7 | 0.00 | 0.00 | 0.00 | 62 | 1006.5 |
| 20260509044347 | 19 | 136 | 6.4 | 14.5 | 0.00 | 0.00 | 0.00 | 62 | 1006.5 |
| 20260509043346 | 20 | 117 | 6.4 | 20.9 | 0.00 | 0.00 | 0.00 | 61 | 1006.5 |
| 20260509042347 | 20 | 132 | 6.4 | 16.1 | 0.00 | 0.00 | 0.00 | 61 | 1006.5 |
| 20260509041346 | 20 | 114 | 8.0 | 17.7 | 0.00 | 0.00 | 0.00 | 59 | 1006.4 |
| 20260509040848 | 20 | 229 | 6.4 | 16.1 | 0.00 | 0.00 | 0.00 | 57 | 1006.4 |
| 20260509035347 | 21 | 148 | 1.6 | 4.8 | 0.00 | 0.00 | 0.00 | 51 | 1006.4 |
| 20260509034345 | 21 | 155 | 1.6 | 6.4 | 0.00 | 0.00 | 0.00 | 51 | 1006.4 |
| 20260509033345 | 21 | 230 | 3.2 | 8.0 | 0.00 | 0.00 | 0.00 | 52 | 1006.4 |
| 20260509032346 | 21 | 240 | 1.6 | 9.7 | 0.00 | 0.00 | 0.00 | 52 | 1006.6 |
| 20260509031346 | 20 | 277 | 3.2 | 11.3 | 0.00 | 0.00 | 0.00 | 53 | 1006.7 |
| 20260509030346 | 20 | 338 | 3.2 | 8.0 | 0.00 | 0.00 | 0.00 | 54 | 1006.8 |
| 20260509025936 | 19 | 261 | 1.6 | 6.4 | 0.00 | 0.00 | 0.00 | 56 | 1006.9 |
| 20260509024346 | 19 | 144 | 3.2 | 9.7 | 0.00 | 0.00 | 0.00 | 56 | 1007.0 |
| 20260509023347 | 19 | 163 | 3.2 | 11.3 | 0.00 | 0.00 | 0.00 | 56 | 1007.3 |
| 20260509022346 | 19 | 288 | 4.8 | 12.9 | 0.00 | 0.00 | 0.00 | 56 | 1007.3 |
| 20260509021344 | 18 | 229 | 6.4 | 17.7 | 0.00 | 0.00 | 0.00 | 55 | 1007.5 |
| 20260509020846 | 19 | 145 | 3.2 | 12.9 | 0.00 | 0.00 | 0.00 | 57 | 1007.6 |
| 20260509015438 | 19 | 178 | 4.8 | 12.9 | 0.00 | 0.00 | 0.00 | 58 | 1007.7 |
| 20260509015345 | 18 | 180 | 4.8 | 11.3 | 0.00 | 0.00 | 0.00 | 57 | 1007.7 |
| 20260509013345 | 19 | 153 | 1.6 | 9.7 | 0.00 | 0.00 | 0.00 | 58 | 1007.8 |
| 20260509012343 | 18 | 237 | 3.2 | 11.3 | 0.00 | 0.00 | 0.00 | 59 | 1008.0 |
| 20260509011357 | 18 | 155 | 4.8 | 16.1 | 0.00 | 0.00 | 0.00 | 62 | 1008.0 |
| 20260509011345 | 18 | 227 | 3.2 | 8.0 | 0.00 | 0.00 | 0.00 | 61 | 1007.9 |
| 20260509005345 | 18 | 178 | 3.2 | 16.1 | 0.00 | 0.00 | 0.00 | 63 | 1008.1 |
| 20260509004846 | 17 | 241 | 3.2 | 11.3 | 0.00 | 0.00 | 0.00 | 64 | 1008.2 |
| 20260509003344 | 17 | 252 | 3.2 | 12.9 | 0.00 | 0.00 | 0.00 | 65 | 1008.2 |
| 20260509002343 | 16 | 207 | 3.2 | 11.3 | 0.00 | 0.00 | 0.00 | 65 | 1008.2 |
| 20260509001344 | 16 | 194 | 4.8 | 12.9 | 0.00 | 0.00 | 0.00 | 67 | 1008.3 |
| 20260509000422 | 15 | 216 | 1.6 | 9.7 | 0.00 | 0.00 | 0.00 | 69 | 1008.3 |
| 20260508235344 | 15 | 245 | 3.2 | 11.3 | 0.00 | 0.00 | 0.00 | 70 | 1008.4 |
| 20260508234345 | 14 | 265 | 3.2 | 12.9 | 0.00 | 0.00 | 0.00 | 72 | 1008.5 |
| 20260508233357 | 14 | 244 | 3.2 | 8.0 | 0.00 | 0.00 | 0.00 | 74 | 1008.4 |
| 20260508232338 | 13 | 187 | 3.2 | 8.0 | 0.00 | 0.00 | 0.00 | 74 | 1008.4 |
| 20260508231840 | 13 | 294 | 1.6 | 8.0 | 0.00 | 0.00 | 0.00 | 76 | 1008.4 |
| 20260508230351 | 12 | 227 | 1.6 | 6.4 | 0.00 | 0.00 | 0.00 | 77 | 1008.4 |
| 20260508230338 | 13 | 234 | 1.6 | 8.0 | 0.00 | 0.00 | 0.00 | 77 | 1008.5 |
| 20260508224339 | 12 | 243 | 1.6 | 8.0 | 0.00 | 0.00 | 0.00 | 78 | 1008.4 |
| 20260508223338 | 12 | 210 | 3.2 | 8.0 | 0.00 | 0.00 | 0.00 | 79 | 1008.4 |
| 20260508222337 | 12 | 265 | 1.6 | 9.7 | 0.00 | 0.00 | 0.00 | 80 | 1008.4 |
| 20260508221339 | 11 | 284 | 3.2 | 8.0 | 0.00 | 0.00 | 0.00 | 80 | 1008.2 |
| 20260508220337 | 11 | 209 | 1.6 | 4.8 | 0.00 | 0.00 | 0.00 | 80 | 1008.1 |
| 20260508215335 | 11 | 209 | 1.6 | 4.8 | 0.00 | 0.00 | 0.00 | 80 | 1008.1 |
| 20260508214334 | 11 | 194 | 0.0 | 6.4 | 0.00 | 0.00 | 0.00 | 80 | 1007.9 |
| 20260508213335 | 11 | 211 | 1.6 | 8.0 | 0.00 | 0.00 | 0.00 | 79 | 1007.9 |
| 20260508212337 | 11 | 247 | 1.6 | 11.3 | 0.00 | 0.00 | 0.00 | 79 | 1007.7 |
| 20260508211837 | 11 | 205 | 0.0 | 4.8 | 0.00 | 0.00 | 0.00 | 78 | 1007.6 |
| 20260508210837 | 11 | 203 | 0.0 | 6.4 | 0.00 | 0.00 | 0.00 | 78 | 1007.5 |
| 20260508205336 | 11 | 308 | 0.0 | 4.8 | 0.00 | 0.00 | 0.00 | 77 | 1007.4 |
| 20260508204334 | 12 | 232 | 1.6 | 6.4 | 0.00 | 0.00 | 0.00 | 77 | 1007.2 |
| 20260508203330 | 12 | 230 | 0.0 | 3.2 | 0.00 | 0.00 | 0.00 | 76 | 1007.2 |
| 20260508202331 | 12 | 230 | 0.0 | 3.2 | 0.00 | 0.00 | 0.00 | 76 | 1007.0 |
| 20260508201330 | 12 | 223 | 1.6 | 4.8 | 0.00 | 0.00 | 0.00 | 76 | 1006.9 |
| 20260508200329 | 12 | 195 | 1.6 | 6.4 | 0.00 | 0.00 | 0.00 | 76 | 1006.8 |
| 20260508195829 | 12 | 193 | 1.6 | 8.0 | 0.00 | 0.00 | 0.00 | 76 | 1006.6 |
| 20260508194328 | 12 | 206 | 0.0 | 4.8 | 0.00 | 0.00 | 0.00 | 76 | 1006.5 |
| 20260508193329 | 12 | 277 | 0.0 | 3.2 | 0.00 | 0.00 | 0.00 | 76 | 1006.3 |
| 20260508192329 | 12 | 197 | 0.0 | 1.6 | 0.00 | 0.00 | 0.00 | 76 | 1006.2 |
| 20260508191326 | 12 | 186 | 0.0 | 4.8 | 0.00 | 0.00 | 0.00 | 76 | 1006.1 |
| 20260508190326 | 12 | 252 | 1.6 | 6.4 | 0.00 | 0.00 | 0.00 | 76 | 1006.1 |
| 20260508185328 | 12 | 207 | 0.0 | 4.8 | 0.00 | 0.00 | 0.00 | 76 | 1006.0 |
| 20260508184340 | 12 | 177 | 0.0 | 4.8 | 0.00 | 0.00 | 0.00 | 76 | 1005.9 |
| 20260508184329 | 12 | 178 | 0.0 | 4.8 | 0.00 | 0.00 | 0.00 | 76 | 1006.0 |
| 20260508182328 | 12 | 283 | 0.0 | 3.2 | 0.00 | 0.00 | 0.00 | 76 | 1005.8 |
| 20260508181830 | 12 | 265 | 0.0 | 1.6 | 0.00 | 0.00 | 0.00 | 76 | 1005.7 |
| 20260508180328 | 12 | 284 | 0.0 | 4.8 | 0.00 | 0.00 | 0.00 | 76 | 1005.6 |
| 20260508175826 | 12 | 217 | 0.0 | 6.4 | 0.00 | 0.00 | 0.00 | 75 | 1005.6 |
| 20260508174825 | 12 | 217 | 1.6 | 6.4 | 0.00 | 0.00 | 0.00 | 75 | 1005.6 |
| 20260508173322 | 12 | 195 | 0.0 | 4.8 | 0.00 | 0.00 | 0.00 | 75 | 1005.6 |
| 20260508172324 | 12 | 190 | 0.0 | 4.8 | 0.00 | 0.00 | 0.00 | 75 | 1005.5 |
| 20260508171338 | 12 | 209 | 1.6 | 6.4 | 0.00 | 0.00 | 0.00 | 75 | 1005.6 |
| 20260508171323 | 12 | 190 | 1.6 | 6.4 | 0.00 | 0.00 | 0.00 | 75 | 1005.6 |
| 20260508165822 | 12 | 297 | 0.0 | 11.3 | 0.00 | 0.00 | 0.00 | 76 | 1005.6 |
| 20260508164321 | 12 | 284 | 1.6 | 6.4 | 0.00 | 0.00 | 0.00 | 76 | 1005.6 |
| 20260508163322 | 12 | 255 | 0.0 | 4.8 | 0.00 | 0.00 | 0.00 | 76 | 1005.6 |
| 20260508162314 | 11 | 296 | 0.0 | 3.2 | 0.00 | 0.00 | 0.00 | 76 | 1005.6 |
| 20260508161314 | 11 | 271 | 1.6 | 6.4 | 0.00 | 0.00 | 0.00 | 76 | 1005.5 |
| 20260508160314 | 11 | 281 | 1.6 | 6.4 | 0.00 | 0.00 | 0.00 | 76 | 1005.4 |
| 20260508155812 | 12 | 221 | 0.0 | 3.2 | 0.00 | 0.00 | 0.00 | 75 | 1005.4 |
| 20260508154314 | 12 | 216 | 1.6 | 8.0 | 0.00 | 0.00 | 0.00 | 75 | 1005.4 |
| 20260508153314 | 12 | 208 | 3.2 | 9.7 | 0.00 | 0.00 | 0.00 | 75 | 1005.4 |
| 20260508152313 | 12 | 198 | 1.6 | 4.8 | 0.00 | 0.00 | 0.00 | 74 | 1005.3 |
| 20260508151813 | 12 | 216 | 1.6 | 8.0 | 0.00 | 0.00 | 0.00 | 74 | 1005.4 |
| 20260508150314 | 12 | 202 | 1.6 | 6.4 | 0.00 | 0.00 | 0.00 | 74 | 1005.4 |
| 20260508145307 | 12 | 278 | 1.6 | 8.0 | 0.00 | 0.00 | 0.00 | 74 | 1005.3 |
| 20260508144307 | 12 | 204 | 1.6 | 6.4 | 0.00 | 0.00 | 0.00 | 73 | 1005.2 |
| 20260508143306 | 12 | 275 | 1.6 | 8.0 | 0.00 | 0.00 | 0.00 | 73 | 1005.3 |
| 20260508142307 | 12 | 301 | 1.6 | 6.4 | 0.00 | 0.00 | 0.00 | 73 | 1005.3 |
| 20260508141323 | 12 | 263 | 1.6 | 6.4 | 0.00 | 0.00 | 0.00 | 73 | 1005.3 |
| 20260508140306 | 13 | 207 | 3.2 | 11.3 | 0.00 | 0.00 | 0.00 | 72 | 1005.3 |
| 20260508135306 | 13 | 221 | 3.2 | 9.7 | 0.00 | 0.00 | 0.00 | 72 | 1005.2 |
| 20260508134808 | 13 | 190 | 1.6 | 8.0 | 0.00 | 0.00 | 0.00 | 72 | 1005.1 |
| 20260508133307 | 13 | 288 | 1.6 | 8.0 | 0.00 | 0.00 | 0.00 | 72 | 1005.1 |
| 20260508132300 | 13 | 298 | 0.0 | 6.4 | 0.00 | 0.00 | 0.00 | 72 | 1005.1 |
| 20260508131300 | 13 | 202 | 1.6 | 4.8 | 0.00 | 0.00 | 0.00 | 72 | 1005.1 |
| 20260508130801 | 13 | 238 | 1.6 | 6.4 | 0.00 | 0.00 | 0.00 | 72 | 1005.1 |
| 20260508125308 | 13 | 213 | 1.6 | 8.0 | 0.00 | 0.00 | 0.00 | 72 | 1005.1 |
| 20260508125258 | 13 | 236 | 0.0 | 6.4 | 0.00 | 0.00 | 0.00 | 72 | 1005.2 |
| 20260508123259 | 13 | 237 | 3.2 | 12.9 | 0.00 | 0.00 | 0.00 | 72 | 1005.1 |
| 20260508122259 | 13 | 210 | 1.6 | 12.9 | 0.00 | 0.00 | 0.00 | 72 | 1005.1 |
| 20260508121308 | 13 | 222 | 1.6 | 4.8 | 0.00 | 0.00 | 0.00 | 72 | 1005.0 |
| 20260508121258 | 13 | 221 | 1.6 | 11.3 | 0.00 | 0.00 | 0.00 | 72 | 1005.1 |
| 20260508115756 | 13 | 259 | 1.6 | 6.4 | 0.00 | 0.00 | 0.00 | 72 | 1005.0 |
| 20260508114251 | 13 | 262 | 1.6 | 4.8 | 0.00 | 0.00 | 0.00 | 72 | 1004.9 |
| 20260508113251 | 13 | 207 | 1.6 | 6.4 | 0.00 | 0.00 | 0.00 | 71 | 1004.9 |
| 20260508112754 | 13 | 224 | 1.6 | 8.0 | 0.00 | 0.00 | 0.00 | 71 | 1004.8 |
| 20260508111753 | 13 | 200 | 1.6 | 6.4 | 0.00 | 0.00 | 0.00 | 71 | 1004.8 |
| 20260508110301 | 13 | 229 | 3.2 | 8.0 | 0.00 | 0.00 | 0.00 | 71 | 1004.7 |
| 20260508105249 | 13 | 204 | 1.6 | 8.0 | 0.00 | 0.00 | 0.00 | 70 | 1004.5 |
| 20260508104250 | 13 | 213 | 1.6 | 8.0 | 0.00 | 0.00 | 0.00 | 70 | 1004.5 |
| 20260508103250 | 13 | 232 | 1.6 | 6.4 | 0.00 | 0.00 | 0.00 | 69 | 1004.4 |
| 20260508102249 | 13 | 227 | 1.6 | 8.0 | 0.00 | 0.00 | 0.00 | 69 | 1004.4 |
| 20260508101250 | 13 | 190 | 1.6 | 8.0 | 0.00 | 0.00 | 0.00 | 68 | 1004.3 |
| 20260508100252 | 13 | 208 | 3.2 | 8.0 | 0.00 | 0.00 | 0.00 | 68 | 1004.2 |
| 20260508095255 | 14 | 224 | 3.2 | 14.5 | 0.00 | 0.00 | 0.00 | 67 | 1004.0 |
| 20260508094250 | 14 | 207 | 3.2 | 11.3 | 0.00 | 0.00 | 0.00 | 67 | 1004.0 |
| 20260508093252 | 14 | 199 | 4.8 | 12.9 | 0.00 | 0.00 | 0.00 | 66 | 1003.8 |
| 20260508092250 | 14 | 232 | 6.4 | 17.7 | 0.00 | 0.00 | 0.00 | 66 | 1003.6 |
| 20260508091250 | 14 | 246 | 4.8 | 12.9 | 0.00 | 0.00 | 0.00 | 65 | 1003.5 |